createdAt,value
2019-05-03T00:02:32.345Z,94731.30
2019-05-03T00:05:26.905Z,94728.50
2019-05-03T00:08:05.055Z,94722.99
2019-05-03T00:10:37.817Z,94730.95
2019-05-03T00:13:09.651Z,94725.92
2019-05-03T00:16:12.297Z,94721.98
2019-05-03T00:18:43.941Z,94727.21
2019-05-03T00:21:15.421Z,94721.80
2019-05-03T00:23:46.978Z,94726.53
2019-05-03T00:26:19.405Z,94725.06
2019-05-03T00:28:52.048Z,94723.60
2019-05-03T00:31:24.696Z,94723.73
2019-05-03T00:34:02.254Z,94727.66
2019-05-03T00:36:42.261Z,94724.06
2019-05-03T00:39:23.104Z,94726.31
2019-05-03T00:41:54.754Z,94724.81
2019-05-03T00:44:26.348Z,94725.92
2019-05-03T00:46:57.928Z,94732.38
2019-05-03T00:49:29.437Z,94737.59
2019-05-03T00:52:02.355Z,94733.20
2019-05-03T00:54:34.041Z,94740.25
2019-05-03T00:57:05.479Z,94745.20
2019-05-03T00:59:36.943Z,94731.92
2019-05-03T01:02:08.244Z,94731.05
2019-05-03T01:04:39.858Z,94733.70
2019-05-03T01:07:11.820Z,94732.59
2019-05-03T01:09:43.426Z,94733.81
2019-05-03T01:12:14.889Z,94735.00
2019-05-03T01:14:48.072Z,94737.14
2019-05-03T01:17:22.465Z,94727.68
2019-05-03T01:19:53.791Z,94735.40
2019-05-03T01:22:25.255Z,94734.67
2019-05-03T01:24:56.947Z,94740.07
2019-05-03T01:27:28.196Z,94735.89
2019-05-03T01:29:59.860Z,94739.27
2019-05-03T01:32:32.984Z,94738.73
2019-05-03T01:35:04.340Z,94745.69
2019-05-03T01:37:35.816Z,94745.23
2019-05-03T01:40:08.079Z,94752.44
2019-05-03T01:42:39.728Z,94744.59
2019-05-03T01:45:12.045Z,94747.15
2019-05-03T01:48:12.521Z,94745.31
2019-05-03T01:51:02.820Z,94744.47
2019-05-03T01:53:35.382Z,94748.41
2019-05-03T01:56:07.014Z,94750.47
2019-05-03T01:58:38.507Z,94737.47
2019-05-03T02:01:26.703Z,94736.28
2019-05-03T02:04:13.527Z,94742.18
2019-05-03T02:06:45.226Z,94734.24
2019-05-03T02:09:16.712Z,94731.97
2019-05-03T02:11:47.972Z,94735.42
2019-05-03T02:14:19.583Z,94739.40
2019-05-03T02:16:52.295Z,94736.03
2019-05-03T02:19:23.914Z,94741.39
2019-05-03T02:21:55.462Z,94734.64
2019-05-03T02:24:27.124Z,94740.09
2019-05-03T02:26:58.663Z,94746.50
2019-05-03T02:29:30.074Z,94742.99
2019-05-03T02:32:03.250Z,94751.54
2019-05-03T02:34:34.804Z,94733.78
2019-05-03T02:37:06.525Z,94741.91
2019-05-03T02:39:38.280Z,94747.27
2019-05-03T02:42:11.725Z,94744.28
2019-05-03T02:44:42.979Z,94743.25
2019-05-03T02:47:36.132Z,94743.78
2019-05-03T02:50:11.394Z,94746.71
2019-05-03T02:52:45.558Z,94752.13
2019-05-03T02:55:16.728Z,94747.95
2019-05-03T02:57:48.370Z,94754.70
2019-05-03T03:00:25.471Z,94764.59
2019-05-03T03:02:57.661Z,94767.52
2019-05-03T03:05:29.979Z,94762.50
2019-05-03T03:08:05.765Z,94766.92
2019-05-03T03:10:37.835Z,94765.34
2019-05-03T03:13:11.100Z,94766.08
2019-05-03T03:15:45.835Z,94759.20
2019-05-03T03:18:17.455Z,94767.27
2019-05-03T03:20:50.914Z,94768.56
2019-05-03T03:23:26.303Z,94764.00
2019-05-03T03:26:00.366Z,94771.94
2019-05-03T03:28:35.959Z,94767.75
2019-05-03T03:31:39.664Z,94775.62
2019-05-03T03:34:12.676Z,94774.75
2019-05-03T03:37:01.061Z,94774.23
2019-05-03T03:39:26.105Z,94777.65
2019-05-03T03:41:59.173Z,94781.13
2019-05-03T03:44:31.000Z,94782.36
2019-05-03T03:47:05.328Z,94778.05
2019-05-03T03:49:40.362Z,94778.73
2019-05-03T03:52:16.021Z,94785.20
2019-05-03T03:54:50.199Z,94777.02
2019-05-03T03:57:25.295Z,94780.06
2019-05-03T03:59:56.599Z,94780.69
2019-05-03T04:02:28.061Z,94784.15
2019-05-03T04:05:00.116Z,94788.48
2019-05-03T04:07:31.879Z,94798.62
2019-05-03T04:10:05.708Z,94793.58
2019-05-03T04:12:37.609Z,94800.06
2019-05-03T04:15:45.366Z,94797.31
2019-05-03T04:18:30.781Z,94799.10
2019-05-03T04:21:02.539Z,94797.66
2019-05-03T04:23:35.908Z,94800.26
2019-05-03T04:26:07.855Z,94803.11
2019-05-03T04:28:40.951Z,94808.59
2019-05-03T04:31:15.055Z,94809.26
2019-05-03T04:33:45.301Z,94811.70
2019-05-03T04:36:16.584Z,94809.80
2019-05-03T04:38:48.926Z,94804.16
2019-05-03T04:41:20.757Z,94815.33
2019-05-03T04:43:51.999Z,94819.67
2019-05-03T04:46:25.874Z,94821.78
2019-05-03T04:48:57.795Z,94827.75
2019-05-03T04:51:29.391Z,94816.23
2019-05-03T04:54:35.438Z,94816.15
2019-05-03T04:57:06.874Z,94815.66
2019-05-03T04:59:38.510Z,94809.81
2019-05-03T05:02:10.083Z,94805.00
2019-05-03T05:04:41.715Z,94809.34
2019-05-03T05:07:15.597Z,94815.63
2019-05-03T05:09:46.464Z,94818.59
2019-05-03T05:12:18.230Z,94818.84
2019-05-03T05:14:49.991Z,94821.68
2019-05-03T05:17:35.662Z,94823.66
2019-05-03T05:20:17.252Z,94816.69
2019-05-03T05:22:48.508Z,94824.34
2019-05-03T05:25:25.016Z,94829.81
2019-05-03T05:28:18.235Z,94826.11
2019-05-03T05:30:50.033Z,94823.34
2019-05-03T05:33:21.232Z,94820.73
2019-05-03T05:35:54.690Z,94827.83
2019-05-03T05:38:26.071Z,94827.22
2019-05-03T05:40:57.736Z,94816.05
2019-05-03T05:43:29.014Z,94817.42
2019-05-03T05:46:00.371Z,94818.44
2019-05-03T05:48:50.836Z,94818.48
2019-05-03T05:51:22.064Z,94826.44
2019-05-03T05:53:54.939Z,94831.64
2019-05-03T05:56:44.503Z,94829.49
2019-05-03T05:59:24.904Z,94832.09
2019-05-03T06:02:08.767Z,94832.86
2019-05-03T06:04:40.004Z,94832.05
2019-05-03T06:07:45.222Z,94832.05
2019-05-03T06:10:28.579Z,94831.56
2019-05-03T06:13:12.894Z,94840.64
2019-05-03T06:15:49.980Z,94836.00
2019-05-03T06:18:32.793Z,94837.86
2019-05-03T06:21:14.928Z,94834.63
2019-05-03T06:23:52.847Z,94834.63
2019-05-03T06:26:41.353Z,94836.20
2019-05-03T06:29:14.823Z,94832.36
2019-05-03T06:32:02.848Z,94829.67
2019-05-03T06:34:35.440Z,94829.67
2019-05-03T06:37:10.694Z,94834.65
2019-05-03T06:39:42.218Z,94830.80
2019-05-03T06:42:17.463Z,94835.77
2019-05-03T06:44:46.338Z,94837.59
2019-05-03T06:47:17.568Z,94837.69
2019-05-03T06:49:48.884Z,94834.05
2019-05-03T06:52:25.492Z,94830.30
2019-05-03T06:54:55.340Z,94823.42
2019-05-03T06:57:27.026Z,94825.47
2019-05-03T07:00:05.335Z,94825.47
2019-05-03T07:02:56.853Z,94823.47
2019-05-03T07:05:50.108Z,94823.45
2019-05-03T07:08:47.298Z,94816.75
2019-05-03T07:11:18.453Z,94816.75
2019-05-03T07:13:49.667Z,94812.84
2019-05-03T07:16:20.778Z,94808.30
2019-05-03T07:18:51.824Z,94804.91
2019-05-03T07:21:24.698Z,94807.98
2019-05-03T07:23:56.006Z,94812.16
2019-05-03T07:26:27.590Z,94812.48
2019-05-03T07:28:58.957Z,94808.95
2019-05-03T07:31:30.300Z,94809.78
2019-05-03T07:34:01.439Z,94806.37
2019-05-03T07:36:35.680Z,94808.00
2019-05-03T07:39:08.747Z,94804.88
2019-05-03T07:41:40.091Z,94797.95
2019-05-03T07:44:11.401Z,94800.25
2019-05-03T07:46:45.037Z,94795.28
2019-05-03T07:49:15.711Z,94794.03
2019-05-03T07:51:46.955Z,94796.86
2019-05-03T07:54:18.352Z,94799.05
2019-05-03T07:56:54.995Z,94789.02
2019-05-03T07:59:26.340Z,94787.25
2019-05-03T08:01:58.761Z,94784.98
2019-05-03T08:04:30.071Z,94778.86
2019-05-03T08:07:01.512Z,94778.01
2019-05-03T08:09:34.877Z,94776.34
2019-05-03T08:12:05.739Z,94771.64
2019-05-03T08:14:37.109Z,94776.41
2019-05-03T08:17:09.437Z,94778.59
2019-05-03T08:19:40.820Z,94785.38
2019-05-03T08:22:12.195Z,94788.58
2019-05-03T08:24:44.812Z,94786.39
2019-05-03T08:27:16.098Z,94779.16
2019-05-03T08:29:47.433Z,94773.69
2019-05-03T08:32:36.576Z,94775.46
2019-05-03T08:35:29.811Z,94774.45
2019-05-03T08:38:02.004Z,94763.43
2019-05-03T08:40:42.318Z,94751.61
2019-05-03T08:43:15.606Z,94746.11
2019-05-03T08:45:46.738Z,94745.70
2019-05-03T08:48:18.246Z,94749.78
2019-05-03T08:50:49.321Z,94742.08
2019-05-03T08:53:25.438Z,94734.06
2019-05-03T08:55:55.855Z,94737.47
2019-05-03T08:58:27.168Z,94731.95
2019-05-03T09:00:58.440Z,94731.38
2019-05-03T09:03:29.495Z,94725.29
2019-05-03T09:06:00.884Z,94723.44
2019-05-03T09:08:32.143Z,94727.81
2019-05-03T09:11:08.549Z,94719.44
2019-05-03T09:14:00.612Z,94716.41
2019-05-03T09:16:31.703Z,94715.33
2019-05-03T09:19:02.939Z,94710.87
2019-05-03T09:21:34.775Z,94713.57
2019-05-03T09:24:06.449Z,94707.76
2019-05-03T09:26:38.893Z,94696.92
2019-05-03T09:29:10.289Z,94694.59
2019-05-03T09:31:41.656Z,94698.22
2019-05-03T09:34:14.771Z,94699.52
2019-05-03T09:36:45.995Z,94706.59
2019-05-03T09:39:17.186Z,94700.21
2019-05-03T09:41:48.321Z,94692.20
2019-05-03T09:44:19.568Z,94683.86
2019-05-03T09:46:50.877Z,94681.55
2019-05-03T09:49:21.960Z,94683.44
2019-05-03T09:51:54.812Z,94680.89
2019-05-03T09:54:41.724Z,94671.86
2019-05-03T09:57:15.132Z,94676.66
2019-05-03T09:59:56.460Z,94674.45
2019-05-03T10:02:18.792Z,94667.27
2019-05-03T10:04:50.090Z,94668.65
2019-05-03T10:07:21.611Z,94661.32
2019-05-03T10:09:55.053Z,94653.92
2019-05-03T10:12:25.981Z,94649.17
2019-05-03T10:14:57.491Z,94646.72
2019-05-03T10:17:55.511Z,94644.64
2019-05-03T10:20:27.665Z,94639.06
2019-05-03T10:23:06.394Z,94635.31
2019-05-03T10:25:40.297Z,94633.73
2019-05-03T10:28:10.825Z,94630.70
2019-05-03T10:30:42.111Z,94621.80
2019-05-03T10:33:18.349Z,94620.53
2019-05-03T10:35:49.659Z,94618.37
2019-05-03T10:38:20.938Z,94609.27
2019-05-03T10:40:54.886Z,94611.43
2019-05-03T10:43:25.694Z,94609.52
2019-05-03T10:45:57.263Z,94609.79
2019-05-03T10:48:28.301Z,94609.94
2019-05-03T10:50:59.517Z,94609.27
2019-05-03T10:53:37.591Z,94598.77
2019-05-03T10:56:37.339Z,94598.27
2019-05-03T10:59:09.450Z,94588.83
2019-05-03T11:02:05.354Z,94588.42
2019-05-03T11:04:36.734Z,94587.11
2019-05-03T11:07:08.057Z,94589.14
2019-05-03T11:09:48.889Z,94585.55
2019-05-03T11:12:14.806Z,94580.38
2019-05-03T11:14:46.346Z,94578.80
2019-05-03T11:17:17.737Z,94572.67
2019-05-03T11:19:48.856Z,94568.94
2019-05-03T11:22:20.167Z,94558.56
2019-05-03T11:24:51.285Z,94554.67
2019-05-03T11:27:31.873Z,94559.29
2019-05-03T11:30:04.933Z,94562.91
2019-05-03T11:32:58.061Z,94553.94
2019-05-03T11:35:55.233Z,94547.61
2019-05-03T11:38:31.729Z,94547.57
2019-05-03T11:41:04.863Z,94546.02
2019-05-03T11:43:35.996Z,94544.61
2019-05-03T11:46:07.377Z,94544.98
2019-05-03T11:48:38.601Z,94535.30
2019-05-03T11:51:09.768Z,94541.30
2019-05-03T11:53:41.243Z,94534.99
2019-05-03T11:56:14.668Z,94535.09
2019-05-03T11:58:45.787Z,94537.89
2019-05-03T12:01:35.560Z,94524.73
2019-05-03T12:04:06.405Z,94528.50
2019-05-03T12:06:37.750Z,94514.56
2019-05-03T12:09:09.253Z,94509.97
2019-05-03T12:11:41.331Z,94509.88
2019-05-03T12:14:15.235Z,94506.00
2019-05-03T12:17:17.128Z,94508.66
2019-05-03T12:19:37.633Z,94497.97
2019-05-03T12:22:08.296Z,94492.81
2019-05-03T12:24:40.462Z,94485.73
2019-05-03T12:27:12.020Z,94479.33
2019-05-03T12:29:44.692Z,94483.57
2019-05-03T12:32:15.962Z,94487.24
2019-05-03T12:34:46.875Z,94476.28
2019-05-03T12:37:18.353Z,94480.39
2019-05-03T12:39:49.371Z,94482.10
2019-05-03T12:42:20.343Z,94472.84
2019-05-03T12:44:52.256Z,94475.01
2019-05-03T12:47:25.139Z,94464.17
2019-05-03T12:49:56.435Z,94469.08
2019-05-03T12:52:28.224Z,94466.75
2019-05-03T12:54:59.732Z,94457.16
2019-05-03T12:57:30.798Z,94460.66
2019-05-03T13:00:26.922Z,94451.34
2019-05-03T13:03:05.135Z,94443.11
2019-05-03T13:05:36.170Z,94440.25
2019-05-03T13:08:51.237Z,94433.73
2019-05-03T13:11:22.425Z,94438.79
2019-05-03T13:13:55.542Z,94440.76
2019-05-03T13:16:27.029Z,94443.81
2019-05-03T13:18:58.357Z,94437.66
2019-05-03T13:21:29.427Z,94437.95
2019-05-03T13:24:00.871Z,94441.23
2019-05-03T13:26:31.811Z,94437.41
2019-05-03T13:29:03.169Z,94434.83
2019-05-03T13:31:34.742Z,94432.25
2019-05-03T13:34:06.009Z,94433.77
2019-05-03T13:36:37.309Z,94429.73
2019-05-03T13:39:14.007Z,94431.39
2019-05-03T13:41:42.673Z,94421.32
2019-05-03T13:44:15.734Z,94418.47
2019-05-03T13:46:46.953Z,94415.28
2019-05-03T13:49:18.239Z,94417.75
2019-05-03T13:51:49.544Z,94417.91
2019-05-03T13:54:20.801Z,94415.81
2019-05-03T13:56:51.821Z,94410.86
2019-05-03T13:59:24.535Z,94414.98
2019-05-03T14:02:10.824Z,94412.48
2019-05-03T14:04:28.758Z,94410.42
2019-05-03T14:06:59.979Z,94416.84
2019-05-03T14:09:31.087Z,94405.65
2019-05-03T14:12:02.034Z,94411.45
2019-05-03T14:14:51.782Z,94404.63
2019-05-03T14:17:25.344Z,94407.66
2019-05-03T14:20:05.423Z,94397.60
2019-05-03T14:22:38.113Z,94393.62
2019-05-03T14:25:09.504Z,94394.60
2019-05-03T14:27:40.811Z,94376.13
2019-05-03T14:30:12.044Z,94391.45
2019-05-03T14:32:45.324Z,94391.78
2019-05-03T14:35:16.470Z,94385.56
2019-05-03T14:37:47.547Z,94385.86
2019-05-03T14:40:18.904Z,94384.36
2019-05-03T14:42:50.033Z,94381.59
2019-05-03T14:45:21.315Z,94380.10
2019-05-03T14:47:52.267Z,94378.97
2019-05-03T14:50:25.455Z,94377.72
2019-05-03T14:52:57.004Z,94379.80
2019-05-03T14:55:40.158Z,94382.73
2019-05-03T14:58:22.469Z,94381.29
2019-05-03T15:01:01.450Z,94380.37
2019-05-03T15:03:34.752Z,94377.44
2019-05-03T15:06:05.854Z,94375.05
2019-05-03T15:08:37.177Z,94382.50
2019-05-03T15:11:08.412Z,94380.02
2019-05-03T15:13:39.513Z,94373.38
2019-05-03T15:16:10.901Z,94375.42
2019-05-03T15:18:41.836Z,94376.98
2019-05-03T15:21:14.615Z,94380.20
2019-05-03T15:23:46.162Z,94376.89
2019-05-03T15:26:17.242Z,94380.90
2019-05-03T15:28:48.267Z,94387.82
2019-05-03T15:31:19.419Z,94390.38
2019-05-03T15:33:50.715Z,94391.33
2019-05-03T15:36:21.902Z,94391.16
2019-05-03T15:38:55.222Z,94387.29
2019-05-03T15:41:26.768Z,94384.00
2019-05-03T15:44:05.264Z,94387.12
2019-05-03T15:46:48.596Z,94384.86
2019-05-03T15:49:19.949Z,94384.59
2019-05-03T15:51:53.885Z,94390.09
2019-05-03T15:54:26.265Z,94384.28
2019-05-03T15:56:57.848Z,94382.20
2019-05-03T15:59:29.071Z,94385.38
2019-05-03T16:02:00.608Z,94382.11
2019-05-03T16:04:32.088Z,94382.05
2019-05-03T16:07:04.925Z,94382.58
2019-05-03T16:09:36.296Z,94380.34
2019-05-03T16:12:07.621Z,94377.94
2019-05-03T16:14:39.149Z,94378.48
2019-05-03T16:17:10.447Z,94379.39
2019-05-03T16:19:41.789Z,94378.03
2019-05-03T16:22:14.406Z,94377.30
2019-05-03T16:24:47.097Z,94378.53
2019-05-03T16:27:43.011Z,94377.42
2019-05-03T16:30:37.614Z,94384.12
2019-05-03T16:33:08.712Z,94386.18
2019-05-03T16:35:40.195Z,94385.38
2019-05-03T16:38:11.539Z,94384.05
2019-05-03T16:40:42.842Z,94385.13
2019-05-03T16:43:16.248Z,94375.92
2019-05-03T16:45:47.648Z,94386.27
2019-05-03T16:48:19.127Z,94380.95
2019-05-03T16:50:50.224Z,94385.28
2019-05-03T16:53:21.538Z,94387.48
2019-05-03T16:55:54.741Z,94386.38
2019-05-03T16:58:25.719Z,94390.84
2019-05-03T17:00:59.154Z,94391.72
2019-05-03T17:03:41.397Z,94393.98
2019-05-03T17:06:39.519Z,94397.69
2019-05-03T17:09:42.651Z,94396.30
2019-05-03T17:12:19.077Z,94399.33
2019-05-03T17:14:50.355Z,94408.90
2019-05-03T17:17:21.747Z,94411.66
2019-05-03T17:19:55.365Z,94413.33
2019-05-03T17:22:26.540Z,94418.62
2019-05-03T17:24:57.990Z,94416.88
2019-05-03T17:27:29.117Z,94422.66
2019-05-03T17:30:00.481Z,94425.33
2019-05-03T17:32:31.851Z,94425.48
2019-05-03T17:35:05.227Z,94422.81
2019-05-03T17:37:36.156Z,94426.44
2019-05-03T17:40:32.499Z,94423.69
2019-05-03T17:43:15.312Z,94429.41
2019-05-03T17:45:49.417Z,94431.66
2019-05-03T17:48:20.609Z,94437.91
2019-05-03T17:50:51.948Z,94437.10
2019-05-03T17:53:55.034Z,94448.26
2019-05-03T17:56:46.340Z,94446.36
2019-05-03T17:59:31.337Z,94453.12
2019-05-03T18:02:24.349Z,94467.53
2019-05-03T18:05:17.654Z,94466.69
2019-05-03T18:08:03.604Z,94470.45
2019-05-03T18:10:36.176Z,94481.47
2019-05-03T18:13:07.364Z,94481.98
2019-05-03T18:15:38.770Z,94484.71
2019-05-03T18:18:10.163Z,94493.02
2019-05-03T18:20:41.463Z,94494.44
2019-05-03T18:23:12.758Z,94500.95
2019-05-03T18:25:44.658Z,94506.02
2019-05-03T18:28:16.428Z,94508.83
2019-05-03T18:30:47.793Z,94511.70
2019-05-03T18:33:19.265Z,94517.43
2019-05-03T18:35:50.343Z,94522.02
2019-05-03T18:38:22.935Z,94526.91
2019-05-03T18:40:55.293Z,94530.15
2019-05-03T18:43:48.898Z,94537.71
2019-05-03T18:46:27.107Z,94542.14
2019-05-03T18:48:59.448Z,94544.83
2019-05-03T18:51:30.603Z,94531.41
2019-05-03T18:54:01.933Z,94529.20
2019-05-03T18:56:34.687Z,94528.65
2019-05-03T18:59:06.224Z,94525.56
2019-05-03T19:01:37.556Z,94528.81
2019-05-03T19:04:34.285Z,94535.20
2019-05-03T19:07:05.300Z,94526.98
2019-05-03T19:09:52.331Z,94536.47
2019-05-03T19:12:31.455Z,94541.05
2019-05-03T19:15:05.188Z,94538.70
2019-05-03T19:17:45.194Z,94542.09
2019-05-03T19:20:18.429Z,94531.06
2019-05-03T19:22:50.024Z,94547.01
2019-05-03T19:25:21.474Z,94553.91
2019-05-03T19:27:54.544Z,94559.71
2019-05-03T19:30:26.157Z,94561.18
2019-05-03T19:32:57.553Z,94554.95
2019-05-03T19:35:28.657Z,94563.44
2019-05-03T19:37:59.817Z,94575.86
2019-05-03T19:40:31.054Z,94577.55
2019-05-03T19:43:03.319Z,94577.42
2019-05-03T19:45:35.467Z,94582.05
2019-05-03T19:48:09.640Z,94584.99
2019-05-03T19:50:39.822Z,94592.33
2019-05-03T19:53:17.945Z,94592.33
2019-05-03T19:55:50.672Z,94591.59
2019-05-03T19:58:22.088Z,94594.23
2019-05-03T20:01:15.115Z,94587.44
2019-05-03T20:03:54.530Z,94587.14
2019-05-03T20:06:38.764Z,94586.62
2019-05-03T20:09:14.707Z,94588.03
2019-05-03T20:11:46.467Z,94577.70
2019-05-03T20:14:17.777Z,94569.23
2019-05-03T20:16:49.192Z,94579.84
2019-05-03T20:19:21.361Z,94588.36
2019-05-03T20:21:54.225Z,94598.48
2019-05-03T20:24:26.530Z,94600.72
2019-05-03T20:26:57.735Z,94591.00
2019-05-03T20:29:28.938Z,94572.45
2019-05-03T20:32:00.305Z,94578.42
2019-05-03T20:34:31.452Z,94578.42
2019-05-03T20:37:02.475Z,94570.53
2019-05-03T20:39:34.814Z,94573.38
2019-05-03T20:42:07.338Z,94572.95
2019-05-03T20:45:05.324Z,94564.33
2019-05-03T20:47:40.659Z,94563.91
2019-05-03T20:50:15.685Z,94577.16
2019-05-03T20:52:47.167Z,94581.44
2019-05-03T20:55:18.371Z,94581.44
2019-05-03T20:57:50.060Z,94588.11
2019-05-03T21:00:25.603Z,94590.83
2019-05-03T21:02:57.455Z,94590.83
2019-05-03T21:05:32.945Z,94591.72
2019-05-03T21:08:01.880Z,94588.68
2019-05-03T21:10:33.140Z,94574.75
2019-05-03T21:13:05.479Z,94578.26
2019-05-03T21:15:46.763Z,94570.07
2019-05-03T21:18:35.372Z,94581.65
2019-05-03T21:21:11.585Z,94581.65
2019-05-03T21:23:46.154Z,94577.62
2019-05-03T21:26:17.253Z,94576.97
2019-05-03T21:28:48.181Z,94585.97
2019-05-03T21:31:19.126Z,94583.95
2019-05-03T21:33:50.100Z,94582.28
2019-05-03T21:36:21.159Z,94582.28
2019-05-03T21:38:52.239Z,94577.05
2019-05-03T21:41:24.604Z,94584.96
2019-05-03T21:43:55.980Z,94589.48
2019-05-03T21:46:48.683Z,94589.48
2019-05-03T21:49:25.316Z,94589.41
2019-05-03T21:51:56.746Z,94583.91
2019-05-03T21:54:28.020Z,94587.02
2019-05-03T21:56:59.473Z,94587.02
2019-05-03T21:59:30.861Z,94592.38
2019-05-03T22:02:02.039Z,94588.42
2019-05-03T22:04:35.040Z,94584.58
2019-05-03T22:07:06.432Z,94593.93
2019-05-03T22:09:37.637Z,94593.93
2019-05-03T22:12:09.029Z,94595.69
2019-05-03T22:14:45.736Z,94591.44
2019-05-03T22:17:34.696Z,94594.64
2019-05-03T22:20:15.121Z,94594.64
2019-05-03T22:23:04.508Z,94593.83
2019-05-03T22:25:36.538Z,94601.30
2019-05-03T22:28:07.868Z,94604.05
2019-05-03T22:30:38.938Z,94600.33
2019-05-03T22:33:10.401Z,94592.95
2019-05-03T22:35:41.819Z,94583.16
2019-05-03T22:38:13.180Z,94593.31
2019-05-03T22:40:46.756Z,94594.52
2019-05-03T22:43:17.284Z,94590.39
2019-05-03T22:45:48.662Z,94592.96
2019-05-03T22:48:20.137Z,94583.84
2019-05-03T22:50:51.355Z,94579.90
2019-05-03T22:53:22.754Z,94583.09
2019-05-03T22:55:54.340Z,94576.83
2019-05-03T22:58:25.792Z,94576.11
2019-05-03T23:00:57.179Z,94572.29
2019-05-03T23:03:30.209Z,94570.78
2019-05-03T23:06:01.740Z,94571.37
2019-05-03T23:08:34.583Z,94570.11
2019-05-03T23:11:06.036Z,94569.59
2019-05-03T23:13:37.276Z,94576.31
2019-05-03T23:16:08.502Z,94575.00
2019-05-03T23:18:39.816Z,94567.84
2019-05-03T23:21:16.230Z,94573.97
2019-05-03T23:23:54.878Z,94577.55
2019-05-03T23:26:26.264Z,94573.09
2019-05-03T23:28:57.350Z,94574.81
2019-05-03T23:31:28.335Z,94580.02
2019-05-03T23:33:59.679Z,94576.88
2019-05-03T23:36:33.382Z,94581.87
2019-05-03T23:39:05.218Z,94583.30
2019-05-03T23:41:36.524Z,94580.66
2019-05-03T23:44:07.927Z,94584.77
2019-05-03T23:46:45.486Z,94584.89
2019-05-03T23:49:16.950Z,94584.14
2019-05-03T23:51:52.372Z,94576.97
2019-05-03T23:54:24.674Z,94571.20
2019-05-03T23:56:56.052Z,94562.41
2019-05-03T23:59:27.044Z,94564.45
